sensor_id;sensor_type;location;lat;lon;timestamp;temperature;humidity
71367;DHT22;60030;52.274;8.040;2023-01-09T00:00:45;9.10;99.90
71367;DHT22;60030;52.274;8.040;2023-01-09T00:03:12;9.10;99.90
71367;DHT22;60030;52.274;8.040;2023-01-09T00:05:39;9.10;99.90
71367;DHT22;60030;52.274;8.040;2023-01-09T00:08:06;9.20;99.90
71367;DHT22;60030;52.274;8.040;2023-01-09T00:10:34;9.30;99.90
71367;DHT22;60030;52.274;8.040;2023-01-09T00:13:01;9.30;99.90
71367;DHT22;60030;52.274;8.040;2023-01-09T00:15:29;9.30;99.90
71367;DHT22;60030;52.274;8.040;2023-01-09T00:17:56;9.40;99.90
71367;DHT22;60030;52.274;8.040;2023-01-09T00:20:23;9.30;99.90
71367;DHT22;60030;52.274;8.040;2023-01-09T00:22:50;9.30;99.90
71367;DHT22;60030;52.274;8.040;2023-01-09T00:25:17;9.40;99.90
71367;DHT22;60030;52.274;8.040;2023-01-09T00:27:44;9.30;99.90
71367;DHT22;60030;52.274;8.040;2023-01-09T00:30:12;9.40;99.90
71367;DHT22;60030;52.274;8.040;2023-01-09T00:32:40;9.40;99.90
71367;DHT22;60030;52.274;8.040;2023-01-09T00:35:11;9.30;99.90
71367;DHT22;60030;52.274;8.040;2023-01-09T00:37:40;9.30;99.90
71367;DHT22;60030;52.274;8.040;2023-01-09T00:40:09;9.60;99.90
71367;DHT22;60030;52.274;8.040;2023-01-09T00:42:36;9.80;99.90
71367;DHT22;60030;52.274;8.040;2023-01-09T00:45:08;9.90;99.90
71367;DHT22;60030;52.274;8.040;2023-01-09T00:47:41;9.90;99.90
71367;DHT22;60030;52.274;8.040;2023-01-09T00:50:12;9.80;99.90
71367;DHT22;60030;52.274;8.040;2023-01-09T00:52:41;9.90;99.90
71367;DHT22;60030;52.274;8.040;2023-01-09T00:55:09;10.00;99.90
71367;DHT22;60030;52.274;8.040;2023-01-09T00:57:36;10.00;99.90
71367;DHT22;60030;52.274;8.040;2023-01-09T01:00:04;10.00;99.90
71367;DHT22;60030;52.274;8.040;2023-01-09T01:02:32;10.00;99.90
71367;DHT22;60030;52.274;8.040;2023-01-09T01:05:00;9.90;99.90
71367;DHT22;60030;52.274;8.040;2023-01-09T01:07:45;10.00;99.90
71367;DHT22;60030;52.274;8.040;2023-01-09T01:10:15;10.00;99.90
71367;DHT22;60030;52.274;8.040;2023-01-09T01:12:46;10.00;99.90
71367;DHT22;60030;52.274;8.040;2023-01-09T01:15:13;10.10;99.90
71367;DHT22;60030;52.274;8.040;2023-01-09T01:17:41;10.10;99.90
71367;DHT22;60030;52.274;8.040;2023-01-09T01:20:12;10.00;99.90
71367;DHT22;60030;52.274;8.040;2023-01-09T01:22:40;9.90;99.90
71367;DHT22;60030;52.274;8.040;2023-01-09T01:25:08;9.70;99.90
71367;DHT22;60030;52.274;8.040;2023-01-09T01:27:35;9.50;99.90
71367;DHT22;60030;52.274;8.040;2023-01-09T01:30:03;9.50;99.90
71367;DHT22;60030;52.274;8.040;2023-01-09T01:32:31;9.40;99.90
71367;DHT22;60030;52.274;8.040;2023-01-09T01:34:58;9.40;99.90
71367;DHT22;60030;52.274;8.040;2023-01-09T01:37:26;9.40;99.90
71367;DHT22;60030;52.274;8.040;2023-01-09T01:39:53;9.50;99.90
71367;DHT22;60030;52.274;8.040;2023-01-09T01:42:21;9.40;99.90
71367;DHT22;60030;52.274;8.040;2023-01-09T01:45:04;9.50;99.90
71367;DHT22;60030;52.274;8.040;2023-01-09T01:47:37;9.50;99.90
71367;DHT22;60030;52.274;8.040;2023-01-09T01:50:09;9.50;99.90
71367;DHT22;60030;52.274;8.040;2023-01-09T01:52:38;9.40;99.90
71367;DHT22;60030;52.274;8.040;2023-01-09T01:55:07;9.40;99.90
71367;DHT22;60030;52.274;8.040;2023-01-09T01:57:35;9.30;99.90
71367;DHT22;60030;52.274;8.040;2023-01-09T02:00:04;9.30;99.90
71367;DHT22;60030;52.274;8.040;2023-01-09T02:02:32;9.30;99.90
71367;DHT22;60030;52.274;8.040;2023-01-09T02:05:04;9.30;99.90
71367;DHT22;60030;52.274;8.040;2023-01-09T02:07:31;9.10;99.90
71367;DHT22;60030;52.274;8.040;2023-01-09T02:09:59;9.20;99.90
71367;DHT22;60030;52.274;8.040;2023-01-09T02:12:27;9.20;99.90
71367;DHT22;60030;52.274;8.040;2023-01-09T02:14:57;9.20;99.90
71367;DHT22;60030;52.274;8.040;2023-01-09T02:17:43;9.20;99.90
71367;DHT22;60030;52.274;8.040;2023-01-09T02:20:33;9.20;99.90
71367;DHT22;60030;52.274;8.040;2023-01-09T02:26:17;9.10;99.90
71367;DHT22;60030;52.274;8.040;2023-01-09T02:29:13;9.10;99.90
71367;DHT22;60030;52.274;8.040;2023-01-09T02:31:52;9.10;99.90
71367;DHT22;60030;52.274;8.040;2023-01-09T02:34:30;9.00;99.90
71367;DHT22;60030;52.274;8.040;2023-01-09T02:37:03;9.00;99.90
71367;DHT22;60030;52.274;8.040;2023-01-09T02:39:36;9.00;99.90
71367;DHT22;60030;52.274;8.040;2023-01-09T02:42:07;9.00;99.90
71367;DHT22;60030;52.274;8.040;2023-01-09T02:44:36;8.90;99.90
71367;DHT22;60030;52.274;8.040;2023-01-09T02:47:06;8.90;99.90
71367;DHT22;60030;52.274;8.040;2023-01-09T02:49:35;8.90;99.90
71367;DHT22;60030;52.274;8.040;2023-01-09T02:52:18;8.80;99.90
71367;DHT22;60030;52.274;8.040;2023-01-09T02:54:56;8.90;99.90
71367;DHT22;60030;52.274;8.040;2023-01-09T02:57:38;8.90;99.90
71367;DHT22;60030;52.274;8.040;2023-01-09T03:00:17;8.90;99.90
71367;DHT22;60030;52.274;8.040;2023-01-09T03:02:54;8.90;99.90
71367;DHT22;60030;52.274;8.040;2023-01-09T03:05:24;8.90;99.90
71367;DHT22;60030;52.274;8.040;2023-01-09T03:07:58;8.90;99.90
71367;DHT22;60030;52.274;8.040;2023-01-09T03:10:33;8.90;99.90
71367;DHT22;60030;52.274;8.040;2023-01-09T03:13:02;8.90;99.90
71367;DHT22;60030;52.274;8.040;2023-01-09T03:15:33;8.80;99.90
71367;DHT22;60030;52.274;8.040;2023-01-09T03:18:03;8.80;99.90
71367;DHT22;60030;52.274;8.040;2023-01-09T03:20:31;8.70;99.90
71367;DHT22;60030;52.274;8.040;2023-01-09T03:23:01;8.70;99.90
71367;DHT22;60030;52.274;8.040;2023-01-09T03:25:29;8.80;99.90
71367;DHT22;60030;52.274;8.040;2023-01-09T03:27:59;8.90;99.90
71367;DHT22;60030;52.274;8.040;2023-01-09T03:30:28;8.80;99.90
71367;DHT22;60030;52.274;8.040;2023-01-09T03:32:56;8.80;99.90
71367;DHT22;60030;52.274;8.040;2023-01-09T03:35:25;8.70;99.90
71367;DHT22;60030;52.274;8.040;2023-01-09T03:37:53;8.80;99.90
71367;DHT22;60030;52.274;8.040;2023-01-09T03:40:20;8.50;99.90
71367;DHT22;60030;52.274;8.040;2023-01-09T03:42:47;8.60;99.90
71367;DHT22;60030;52.274;8.040;2023-01-09T03:45:15;8.50;99.90
71367;DHT22;60030;52.274;8.040;2023-01-09T03:47:42;8.60;99.90
71367;DHT22;60030;52.274;8.040;2023-01-09T03:50:09;8.70;99.90
71367;DHT22;60030;52.274;8.040;2023-01-09T03:52:38;8.60;99.90
71367;DHT22;60030;52.274;8.040;2023-01-09T03:55:06;8.60;99.90
71367;DHT22;60030;52.274;8.040;2023-01-09T03:57:33;8.60;99.90
71367;DHT22;60030;52.274;8.040;2023-01-09T04:00:01;8.50;99.90
71367;DHT22;60030;52.274;8.040;2023-01-09T04:02:37;8.40;99.90
71367;DHT22;60030;52.274;8.040;2023-01-09T04:05:06;8.50;99.90
71367;DHT22;60030;52.274;8.040;2023-01-09T04:07:33;8.40;99.90
71367;DHT22;60030;52.274;8.040;2023-01-09T04:10:01;8.50;99.90
71367;DHT22;60030;52.274;8.040;2023-01-09T04:12:28;8.40;99.90
71367;DHT22;60030;52.274;8.040;2023-01-09T04:14:56;8.50;99.90
71367;DHT22;60030;52.274;8.040;2023-01-09T04:17:23;8.40;99.90
71367;DHT22;60030;52.274;8.040;2023-01-09T04:19:50;8.50;99.90
71367;DHT22;60030;52.274;8.040;2023-01-09T04:22:17;8.50;99.90
71367;DHT22;60030;52.274;8.040;2023-01-09T04:24:44;8.40;99.90
71367;DHT22;60030;52.274;8.040;2023-01-09T04:27:12;8.30;99.90
71367;DHT22;60030;52.274;8.040;2023-01-09T04:29:39;8.40;99.90
71367;DHT22;60030;52.274;8.040;2023-01-09T04:32:06;8.30;99.90
71367;DHT22;60030;52.274;8.040;2023-01-09T04:34:33;8.30;99.90
71367;DHT22;60030;52.274;8.040;2023-01-09T04:37:00;8.20;99.90
71367;DHT22;60030;52.274;8.040;2023-01-09T04:39:27;8.00;99.90
71367;DHT22;60030;52.274;8.040;2023-01-09T04:41:54;8.00;99.90
71367;DHT22;60030;52.274;8.040;2023-01-09T04:44:23;8.00;99.90
71367;DHT22;60030;52.274;8.040;2023-01-09T04:46:52;8.00;99.90
71367;DHT22;60030;52.274;8.040;2023-01-09T04:49:19;8.10;99.90
71367;DHT22;60030;52.274;8.040;2023-01-09T04:51:47;8.10;99.90
71367;DHT22;60030;52.274;8.040;2023-01-09T04:54:14;8.10;99.90
71367;DHT22;60030;52.274;8.040;2023-01-09T04:56:41;8.00;99.90
71367;DHT22;60030;52.274;8.040;2023-01-09T04:59:08;7.90;99.90
71367;DHT22;60030;52.274;8.040;2023-01-09T05:01:36;7.90;99.90
71367;DHT22;60030;52.274;8.040;2023-01-09T05:04:04;7.90;99.90
71367;DHT22;60030;52.274;8.040;2023-01-09T05:06:32;8.00;99.90
71367;DHT22;60030;52.274;8.040;2023-01-09T05:09:00;8.00;99.90
71367;DHT22;60030;52.274;8.040;2023-01-09T05:11:27;8.00;99.90
71367;DHT22;60030;52.274;8.040;2023-01-09T05:13:54;7.90;99.90
71367;DHT22;60030;52.274;8.040;2023-01-09T05:16:21;7.90;99.90
71367;DHT22;60030;52.274;8.040;2023-01-09T05:18:49;7.80;99.90
71367;DHT22;60030;52.274;8.040;2023-01-09T05:21:21;7.90;99.90
71367;DHT22;60030;52.274;8.040;2023-01-09T05:23:48;7.90;99.90
71367;DHT22;60030;52.274;8.040;2023-01-09T05:26:15;7.90;99.90
71367;DHT22;60030;52.274;8.040;2023-01-09T05:28:42;8.00;99.90
71367;DHT22;60030;52.274;8.040;2023-01-09T05:31:09;8.00;99.90
71367;DHT22;60030;52.274;8.040;2023-01-09T05:33:36;7.90;99.90
71367;DHT22;60030;52.274;8.040;2023-01-09T05:36:06;7.90;99.90
71367;DHT22;60030;52.274;8.040;2023-01-09T05:38:33;7.80;99.90
71367;DHT22;60030;52.274;8.040;2023-01-09T05:41:00;7.90;99.90
71367;DHT22;60030;52.274;8.040;2023-01-09T05:43:27;7.90;99.90
71367;DHT22;60030;52.274;8.040;2023-01-09T05:45:54;8.00;99.90
71367;DHT22;60030;52.274;8.040;2023-01-09T05:48:21;8.00;99.90
71367;DHT22;60030;52.274;8.040;2023-01-09T05:50:48;8.00;99.90
71367;DHT22;60030;52.274;8.040;2023-01-09T05:53:16;8.00;99.90
71367;DHT22;60030;52.274;8.040;2023-01-09T05:55:44;7.90;99.90
71367;DHT22;60030;52.274;8.040;2023-01-09T05:58:11;7.80;99.90
71367;DHT22;60030;52.274;8.040;2023-01-09T06:00:38;7.90;99.90
71367;DHT22;60030;52.274;8.040;2023-01-09T06:03:05;7.90;99.90
71367;DHT22;60030;52.274;8.040;2023-01-09T06:05:32;8.00;99.90
71367;DHT22;60030;52.274;8.040;2023-01-09T06:07:59;8.10;99.90
71367;DHT22;60030;52.274;8.040;2023-01-09T06:10:27;8.10;99.90
71367;DHT22;60030;52.274;8.040;2023-01-09T06:12:55;8.10;99.90
71367;DHT22;60030;52.274;8.040;2023-01-09T06:15:22;8.00;99.90
71367;DHT22;60030;52.274;8.040;2023-01-09T06:17:49;8.10;99.90
71367;DHT22;60030;52.274;8.040;2023-01-09T06:20:16;8.00;99.90
71367;DHT22;60030;52.274;8.040;2023-01-09T06:22:43;7.90;99.90
71367;DHT22;60030;52.274;8.040;2023-01-09T06:25:10;7.80;99.90
71367;DHT22;60030;52.274;8.040;2023-01-09T06:27:39;7.90;99.90
71367;DHT22;60030;52.274;8.040;2023-01-09T06:30:07;7.90;99.90
71367;DHT22;60030;52.274;8.040;2023-01-09T06:32:34;7.90;99.90
71367;DHT22;60030;52.274;8.040;2023-01-09T06:35:02;7.90;99.90
71367;DHT22;60030;52.274;8.040;2023-01-09T06:37:29;7.90;99.90
71367;DHT22;60030;52.274;8.040;2023-01-09T06:39:56;7.90;99.90
71367;DHT22;60030;52.274;8.040;2023-01-09T06:42:23;8.00;99.90
71367;DHT22;60030;52.274;8.040;2023-01-09T06:44:51;7.90;99.90
71367;DHT22;60030;52.274;8.040;2023-01-09T06:47:18;8.00;99.90
71367;DHT22;60030;52.274;8.040;2023-01-09T06:49:45;7.90;99.90
71367;DHT22;60030;52.274;8.040;2023-01-09T06:52:12;7.90;99.90
71367;DHT22;60030;52.274;8.040;2023-01-09T06:54:39;8.10;99.90
71367;DHT22;60030;52.274;8.040;2023-01-09T06:57:06;7.90;99.90
71367;DHT22;60030;52.274;8.040;2023-01-09T06:59:33;8.00;99.90
71367;DHT22;60030;52.274;8.040;2023-01-09T07:02:03;8.00;99.90
71367;DHT22;60030;52.274;8.040;2023-01-09T07:04:30;8.10;99.90
71367;DHT22;60030;52.274;8.040;2023-01-09T07:06:57;8.10;99.90
71367;DHT22;60030;52.274;8.040;2023-01-09T07:09:24;8.20;99.90
71367;DHT22;60030;52.274;8.040;2023-01-09T07:11:51;8.20;99.90
71367;DHT22;60030;52.274;8.040;2023-01-09T07:14:18;8.10;99.90
71367;DHT22;60030;52.274;8.040;2023-01-09T07:16:45;7.90;99.90
71367;DHT22;60030;52.274;8.040;2023-01-09T07:19:13;8.00;99.90
71367;DHT22;60030;52.274;8.040;2023-01-09T07:21:40;8.10;99.90
71367;DHT22;60030;52.274;8.040;2023-01-09T07:24:07;8.10;99.90
71367;DHT22;60030;52.274;8.040;2023-01-09T07:26:34;8.10;99.90
71367;DHT22;60030;52.274;8.040;2023-01-09T07:29:01;8.10;99.90
71367;DHT22;60030;52.274;8.040;2023-01-09T07:31:28;8.20;99.90
71367;DHT22;60030;52.274;8.040;2023-01-09T07:33:55;8.20;99.90
71367;DHT22;60030;52.274;8.040;2023-01-09T07:36:24;8.20;99.90
71367;DHT22;60030;52.274;8.040;2023-01-09T07:38:51;8.20;99.90
71367;DHT22;60030;52.274;8.040;2023-01-09T07:41:18;8.20;99.90
71367;DHT22;60030;52.274;8.040;2023-01-09T07:43:45;8.10;99.90
71367;DHT22;60030;52.274;8.040;2023-01-09T07:46:12;8.20;99.90
71367;DHT22;60030;52.274;8.040;2023-01-09T07:48:39;8.30;99.90
71367;DHT22;60030;52.274;8.040;2023-01-09T07:51:06;8.20;99.90
71367;DHT22;60030;52.274;8.040;2023-01-09T07:53:36;8.10;99.90
71367;DHT22;60030;52.274;8.040;2023-01-09T07:56:04;8.10;99.90
71367;DHT22;60030;52.274;8.040;2023-01-09T07:58:31;8.20;99.90
71367;DHT22;60030;52.274;8.040;2023-01-09T08:00:58;8.30;99.90
71367;DHT22;60030;52.274;8.040;2023-01-09T08:03:25;8.30;99.90
71367;DHT22;60030;52.274;8.040;2023-01-09T08:05:52;8.20;99.90
71367;DHT22;60030;52.274;8.040;2023-01-09T08:08:19;8.20;99.90
71367;DHT22;60030;52.274;8.040;2023-01-09T08:10:48;8.30;99.90
71367;DHT22;60030;52.274;8.040;2023-01-09T08:13:16;8.30;99.90
71367;DHT22;60030;52.274;8.040;2023-01-09T08:15:43;8.20;99.90
71367;DHT22;60030;52.274;8.040;2023-01-09T08:18:10;8.30;99.90
71367;DHT22;60030;52.274;8.040;2023-01-09T08:20:37;8.30;99.90
71367;DHT22;60030;52.274;8.040;2023-01-09T08:23:04;8.30;99.90
71367;DHT22;60030;52.274;8.040;2023-01-09T08:25:31;8.30;99.90
71367;DHT22;60030;52.274;8.040;2023-01-09T08:27:59;8.40;99.90
71367;DHT22;60030;52.274;8.040;2023-01-09T08:30:26;8.30;99.90
71367;DHT22;60030;52.274;8.040;2023-01-09T08:32:53;8.30;99.90
71367;DHT22;60030;52.274;8.040;2023-01-09T08:35:21;8.30;99.90
71367;DHT22;60030;52.274;8.040;2023-01-09T08:37:48;8.50;99.90
71367;DHT22;60030;52.274;8.040;2023-01-09T08:40:16;8.40;99.90
71367;DHT22;60030;52.274;8.040;2023-01-09T08:42:43;8.40;99.90
71367;DHT22;60030;52.274;8.040;2023-01-09T08:45:29;8.50;99.90
71367;DHT22;60030;52.274;8.040;2023-01-09T08:48:14;8.40;99.90
71367;DHT22;60030;52.274;8.040;2023-01-09T08:50:42;8.50;99.90
71367;DHT22;60030;52.274;8.040;2023-01-09T08:53:09;8.60;99.90
71367;DHT22;60030;52.274;8.040;2023-01-09T08:55:36;8.60;99.90
71367;DHT22;60030;52.274;8.040;2023-01-09T08:58:03;8.70;99.90
71367;DHT22;60030;52.274;8.040;2023-01-09T09:00:32;8.80;99.90
71367;DHT22;60030;52.274;8.040;2023-01-09T09:03:00;8.80;99.90
71367;DHT22;60030;52.274;8.040;2023-01-09T09:05:28;8.90;99.90
71367;DHT22;60030;52.274;8.040;2023-01-09T09:07:56;9.00;99.90
71367;DHT22;60030;52.274;8.040;2023-01-09T09:10:25;9.10;99.90
71367;DHT22;60030;52.274;8.040;2023-01-09T09:12:54;9.00;99.90
71367;DHT22;60030;52.274;8.040;2023-01-09T09:15:22;9.00;99.90
71367;DHT22;60030;52.274;8.040;2023-01-09T09:17:52;8.90;99.90
71367;DHT22;60030;52.274;8.040;2023-01-09T09:20:20;8.80;99.90
71367;DHT22;60030;52.274;8.040;2023-01-09T09:22:47;8.80;99.90
71367;DHT22;60030;52.274;8.040;2023-01-09T09:25:15;8.90;99.90
71367;DHT22;60030;52.274;8.040;2023-01-09T09:27:43;9.00;99.90
71367;DHT22;60030;52.274;8.040;2023-01-09T09:30:11;9.30;99.90
71367;DHT22;60030;52.274;8.040;2023-01-09T09:32:39;9.30;99.90
71367;DHT22;60030;52.274;8.040;2023-01-09T09:35:08;9.30;99.90
71367;DHT22;60030;52.274;8.040;2023-01-09T09:37:36;9.20;99.90
71367;DHT22;60030;52.274;8.040;2023-01-09T09:40:05;9.10;99.90
71367;DHT22;60030;52.274;8.040;2023-01-09T09:42:43;9.20;99.90
71367;DHT22;60030;52.274;8.040;2023-01-09T09:45:39;9.30;99.90
71367;DHT22;60030;52.274;8.040;2023-01-09T09:48:22;9.40;99.90
71367;DHT22;60030;52.274;8.040;2023-01-09T09:51:07;9.60;99.90
71367;DHT22;60030;52.274;8.040;2023-01-09T09:53:41;9.50;99.90
71367;DHT22;60030;52.274;8.040;2023-01-09T09:56:12;9.40;99.90
71367;DHT22;60030;52.274;8.040;2023-01-09T09:58:42;9.30;99.90
71367;DHT22;60030;52.274;8.040;2023-01-09T10:01:14;9.30;99.90
71367;DHT22;60030;52.274;8.040;2023-01-09T10:03:45;9.20;99.90
71367;DHT22;60030;52.274;8.040;2023-01-09T10:06:20;9.20;99.90
71367;DHT22;60030;52.274;8.040;2023-01-09T10:08:53;9.30;99.90
71367;DHT22;60030;52.274;8.040;2023-01-09T10:11:31;9.30;99.90
71367;DHT22;60030;52.274;8.040;2023-01-09T10:14:01;9.10;99.90
71367;DHT22;60030;52.274;8.040;2023-01-09T10:16:38;9.30;99.90
71367;DHT22;60030;52.274;8.040;2023-01-09T10:19:20;9.40;99.90
71367;DHT22;60030;52.274;8.040;2023-01-09T10:21:56;9.40;99.90
71367;DHT22;60030;52.274;8.040;2023-01-09T10:24:37;9.40;99.90
71367;DHT22;60030;52.274;8.040;2023-01-09T10:27:15;9.50;99.90
71367;DHT22;60030;52.274;8.040;2023-01-09T10:29:52;9.50;99.90
71367;DHT22;60030;52.274;8.040;2023-01-09T10:32:34;9.30;99.90
71367;DHT22;60030;52.274;8.040;2023-01-09T10:35:27;9.40;99.90
71367;DHT22;60030;52.274;8.040;2023-01-09T10:38:03;9.40;99.90
71367;DHT22;60030;52.274;8.040;2023-01-09T10:40:34;9.30;99.90
71367;DHT22;60030;52.274;8.040;2023-01-09T10:43:05;9.50;99.90
71367;DHT22;60030;52.274;8.040;2023-01-09T10:45:39;9.50;99.90
71367;DHT22;60030;52.274;8.040;2023-01-09T10:48:15;9.50;99.90
71367;DHT22;60030;52.274;8.040;2023-01-09T10:50:46;9.30;99.90
71367;DHT22;60030;52.274;8.040;2023-01-09T10:53:20;9.20;99.90
71367;DHT22;60030;52.274;8.040;2023-01-09T10:55:52;9.10;99.90
71367;DHT22;60030;52.274;8.040;2023-01-09T10:58:21;9.10;99.90
71367;DHT22;60030;52.274;8.040;2023-01-09T11:00:49;9.10;99.90
71367;DHT22;60030;52.274;8.040;2023-01-09T11:03:18;9.10;99.90
71367;DHT22;60030;52.274;8.040;2023-01-09T11:05:50;9.10;99.90
71367;DHT22;60030;52.274;8.040;2023-01-09T11:08:24;9.20;99.90
71367;DHT22;60030;52.274;8.040;2023-01-09T11:10:54;9.00;99.90
71367;DHT22;60030;52.274;8.040;2023-01-09T11:13:22;9.10;99.90
71367;DHT22;60030;52.274;8.040;2023-01-09T11:16:01;9.20;99.90
71367;DHT22;60030;52.274;8.040;2023-01-09T11:18:29;9.20;99.90
71367;DHT22;60030;52.274;8.040;2023-01-09T11:21:12;9.30;99.90
71367;DHT22;60030;52.274;8.040;2023-01-09T11:23:40;9.30;99.90
71367;DHT22;60030;52.274;8.040;2023-01-09T11:26:21;9.30;99.90
71367;DHT22;60030;52.274;8.040;2023-01-09T11:29:04;9.10;99.90
71367;DHT22;60030;52.274;8.040;2023-01-09T11:31:32;9.10;99.90
71367;DHT22;60030;52.274;8.040;2023-01-09T11:34:00;9.00;99.90
71367;DHT22;60030;52.274;8.040;2023-01-09T11:36:27;8.90;99.90
71367;DHT22;60030;52.274;8.040;2023-01-09T11:38:56;8.70;99.90
71367;DHT22;60030;52.274;8.040;2023-01-09T11:41:26;8.70;99.90
71367;DHT22;60030;52.274;8.040;2023-01-09T11:43:57;8.80;99.90
71367;DHT22;60030;52.274;8.040;2023-01-09T11:46:34;8.70;99.90
71367;DHT22;60030;52.274;8.040;2023-01-09T11:49:03;8.90;99.90
71367;DHT22;60030;52.274;8.040;2023-01-09T11:51:32;9.00;99.90
71367;DHT22;60030;52.274;8.040;2023-01-09T11:54:22;9.00;99.90
71367;DHT22;60030;52.274;8.040;2023-01-09T11:56:51;9.00;99.90
71367;DHT22;60030;52.274;8.040;2023-01-09T11:59:20;9.00;99.90
71367;DHT22;60030;52.274;8.040;2023-01-09T12:02:17;9.00;99.90
71367;DHT22;60030;52.274;8.040;2023-01-09T12:04:51;9.00;99.90
71367;DHT22;60030;52.274;8.040;2023-01-09T12:07:29;8.90;99.90
71367;DHT22;60030;52.274;8.040;2023-01-09T12:10:10;9.00;99.90
71367;DHT22;60030;52.274;8.040;2023-01-09T12:12:50;9.00;99.90
71367;DHT22;60030;52.274;8.040;2023-01-09T12:15:27;9.10;99.90
71367;DHT22;60030;52.274;8.040;2023-01-09T12:18:14;9.10;99.90
71367;DHT22;60030;52.274;8.040;2023-01-09T12:21:06;9.10;99.90
71367;DHT22;60030;52.274;8.040;2023-01-09T12:23:53;9.00;99.90
71367;DHT22;60030;52.274;8.040;2023-01-09T12:26:31;8.90;99.90
71367;DHT22;60030;52.274;8.040;2023-01-09T12:29:19;9.00;99.90
71367;DHT22;60030;52.274;8.040;2023-01-09T12:34:48;8.90;99.90
71367;DHT22;60030;52.274;8.040;2023-01-09T12:37:35;9.00;99.90
71367;DHT22;60030;52.274;8.040;2023-01-09T12:40:12;8.80;99.90
71367;DHT22;60030;52.274;8.040;2023-01-09T12:42:52;8.90;99.90
71367;DHT22;60030;52.274;8.040;2023-01-09T12:45:32;9.00;99.90
71367;DHT22;60030;52.274;8.040;2023-01-09T12:48:09;8.90;99.90
71367;DHT22;60030;52.274;8.040;2023-01-09T12:51:01;9.00;99.90
71367;DHT22;60030;52.274;8.040;2023-01-09T12:53:37;8.90;99.90
71367;DHT22;60030;52.274;8.040;2023-01-09T12:56:10;9.10;99.90
71367;DHT22;60030;52.274;8.040;2023-01-09T12:58:44;9.10;99.90
71367;DHT22;60030;52.274;8.040;2023-01-09T13:01:16;9.10;99.90
71367;DHT22;60030;52.274;8.040;2023-01-09T13:03:49;9.00;99.90
71367;DHT22;60030;52.274;8.040;2023-01-09T13:06:19;9.00;99.90
71367;DHT22;60030;52.274;8.040;2023-01-09T13:08:50;9.00;99.90
71367;DHT22;60030;52.274;8.040;2023-01-09T13:11:23;8.90;99.90
71367;DHT22;60030;52.274;8.040;2023-01-09T13:13:56;8.80;99.90
71367;DHT22;60030;52.274;8.040;2023-01-09T13:16:29;8.80;99.90
71367;DHT22;60030;52.274;8.040;2023-01-09T13:19:02;8.80;99.90
71367;DHT22;60030;52.274;8.040;2023-01-09T13:21:31;8.70;99.90
71367;DHT22;60030;52.274;8.040;2023-01-09T13:24:02;8.40;99.90
71367;DHT22;60030;52.274;8.040;2023-01-09T13:26:35;8.20;99.90
71367;DHT22;60030;52.274;8.040;2023-01-09T13:29:11;8.10;99.90
71367;DHT22;60030;52.274;8.040;2023-01-09T13:34:38;8.40;99.90
71367;DHT22;60030;52.274;8.040;2023-01-09T13:37:18;8.40;99.90
71367;DHT22;60030;52.274;8.040;2023-01-09T13:39:54;8.40;99.90
71367;DHT22;60030;52.274;8.040;2023-01-09T13:42:23;8.40;99.90
71367;DHT22;60030;52.274;8.040;2023-01-09T13:45:19;8.40;99.90
71367;DHT22;60030;52.274;8.040;2023-01-09T13:48:27;8.50;99.90
71367;DHT22;60030;52.274;8.040;2023-01-09T13:53:55;8.50;99.90
71367;DHT22;60030;52.274;8.040;2023-01-09T13:56:23;8.40;99.90
71367;DHT22;60030;52.274;8.040;2023-01-09T13:58:58;8.50;99.90
71367;DHT22;60030;52.274;8.040;2023-01-09T14:01:42;8.60;99.90
71367;DHT22;60030;52.274;8.040;2023-01-09T14:04:34;8.70;99.90
71367;DHT22;60030;52.274;8.040;2023-01-09T14:07:19;8.60;99.90
71367;DHT22;60030;52.274;8.040;2023-01-09T14:09:59;8.40;99.90
71367;DHT22;60030;52.274;8.040;2023-01-09T14:12:28;8.40;99.90
71367;DHT22;60030;52.274;8.040;2023-01-09T14:14:58;8.40;99.90
71367;DHT22;60030;52.274;8.040;2023-01-09T14:17:31;8.50;99.90
71367;DHT22;60030;52.274;8.040;2023-01-09T14:20:02;8.60;99.90
71367;DHT22;60030;52.274;8.040;2023-01-09T14:22:32;8.60;99.90
71367;DHT22;60030;52.274;8.040;2023-01-09T14:25:05;8.60;99.90
71367;DHT22;60030;52.274;8.040;2023-01-09T14:28:02;8.70;99.90
71367;DHT22;60030;52.274;8.040;2023-01-09T14:30:33;8.60;99.90
71367;DHT22;60030;52.274;8.040;2023-01-09T14:33:03;8.70;99.90
71367;DHT22;60030;52.274;8.040;2023-01-09T14:35:40;8.80;99.90
71367;DHT22;60030;52.274;8.040;2023-01-09T14:38:26;8.90;99.90
71367;DHT22;60030;52.274;8.040;2023-01-09T14:41:00;8.90;99.90
71367;DHT22;60030;52.274;8.040;2023-01-09T14:43:50;8.80;99.90
71367;DHT22;60030;52.274;8.040;2023-01-09T14:46:20;8.80;99.90
71367;DHT22;60030;52.274;8.040;2023-01-09T14:48:58;8.90;99.90
71367;DHT22;60030;52.274;8.040;2023-01-09T14:51:28;8.90;99.90
71367;DHT22;60030;52.274;8.040;2023-01-09T14:53:57;8.50;99.90
71367;DHT22;60030;52.274;8.040;2023-01-09T14:56:28;8.40;99.90
71367;DHT22;60030;52.274;8.040;2023-01-09T14:59:09;8.10;99.90
71367;DHT22;60030;52.274;8.040;2023-01-09T15:01:39;8.20;99.90
71367;DHT22;60030;52.274;8.040;2023-01-09T15:04:20;8.10;99.90
71367;DHT22;60030;52.274;8.040;2023-01-09T15:06:48;8.00;99.90
71367;DHT22;60030;52.274;8.040;2023-01-09T15:09:21;8.10;99.90
71367;DHT22;60030;52.274;8.040;2023-01-09T15:11:50;8.20;99.90
71367;DHT22;60030;52.274;8.040;2023-01-09T15:14:30;8.30;99.90
71367;DHT22;60030;52.274;8.040;2023-01-09T15:16:59;8.30;99.90
71367;DHT22;60030;52.274;8.040;2023-01-09T15:19:28;8.30;99.90
71367;DHT22;60030;52.274;8.040;2023-01-09T15:21:58;8.30;99.90
71367;DHT22;60030;52.274;8.040;2023-01-09T15:24:28;8.30;99.90
71367;DHT22;60030;52.274;8.040;2023-01-09T15:26:56;8.20;99.90
71367;DHT22;60030;52.274;8.040;2023-01-09T15:29:24;8.30;99.90
71367;DHT22;60030;52.274;8.040;2023-01-09T15:31:54;8.30;99.90
71367;DHT22;60030;52.274;8.040;2023-01-09T15:34:23;8.40;99.90
71367;DHT22;60030;52.274;8.040;2023-01-09T15:36:52;8.30;99.90
71367;DHT22;60030;52.274;8.040;2023-01-09T15:39:23;8.30;99.90
71367;DHT22;60030;52.274;8.040;2023-01-09T15:41:51;8.30;99.90
71367;DHT22;60030;52.274;8.040;2023-01-09T15:44:38;8.30;99.90
71367;DHT22;60030;52.274;8.040;2023-01-09T15:47:10;8.40;99.90
71367;DHT22;60030;52.274;8.040;2023-01-09T15:49:39;8.50;99.90
71367;DHT22;60030;52.274;8.040;2023-01-09T15:52:10;8.50;99.90
71367;DHT22;60030;52.274;8.040;2023-01-09T15:54:41;8.60;99.90
71367;DHT22;60030;52.274;8.040;2023-01-09T15:57:28;8.70;99.90
71367;DHT22;60030;52.274;8.040;2023-01-09T16:03:00;8.70;99.90
71367;DHT22;60030;52.274;8.040;2023-01-09T16:05:41;8.60;99.90
71367;DHT22;60030;52.274;8.040;2023-01-09T16:08:21;8.60;99.90
71367;DHT22;60030;52.274;8.040;2023-01-09T16:10:50;8.30;99.90
71367;DHT22;60030;52.274;8.040;2023-01-09T16:13:20;8.30;99.90
71367;DHT22;60030;52.274;8.040;2023-01-09T16:15:49;8.40;99.90
71367;DHT22;60030;52.274;8.040;2023-01-09T16:18:35;8.50;99.90
71367;DHT22;60030;52.274;8.040;2023-01-09T16:21:15;8.50;99.90
71367;DHT22;60030;52.274;8.040;2023-01-09T16:23:55;8.60;99.90
71367;DHT22;60030;52.274;8.040;2023-01-09T16:26:25;8.70;99.90